sensor_id;sensor_type;location;lat;lon;timestamp;temperature;humidity
31271;DHT22;17904;47.420;9.310;2022-08-01T00:00:06;18.10;99.90
31271;DHT22;17904;47.420;9.310;2022-08-01T00:02:38;18.10;99.90
31271;DHT22;17904;47.420;9.310;2022-08-01T00:05:06;18.10;99.90
31271;DHT22;17904;47.420;9.310;2022-08-01T00:07:34;18.10;99.90
31271;DHT22;17904;47.420;9.310;2022-08-01T00:10:04;18.10;99.90
31271;DHT22;17904;47.420;9.310;2022-08-01T00:12:31;18.10;99.90
31271;DHT22;17904;47.420;9.310;2022-08-01T00:14:58;18.10;99.90
31271;DHT22;17904;47.420;9.310;2022-08-01T00:17:24;18.00;99.90
31271;DHT22;17904;47.420;9.310;2022-08-01T00:19:51;18.00;99.90
31271;DHT22;17904;47.420;9.310;2022-08-01T00:22:18;18.00;99.90
31271;DHT22;17904;47.420;9.310;2022-08-01T00:24:45;18.00;99.90
31271;DHT22;17904;47.420;9.310;2022-08-01T00:27:11;18.00;99.90
31271;DHT22;17904;47.420;9.310;2022-08-01T00:29:38;18.00;99.90
31271;DHT22;17904;47.420;9.310;2022-08-01T00:32:25;18.00;99.90
31271;DHT22;17904;47.420;9.310;2022-08-01T00:34:51;17.90;99.90
31271;DHT22;17904;47.420;9.310;2022-08-01T00:37:18;17.90;99.90
31271;DHT22;17904;47.420;9.310;2022-08-01T00:39:45;17.80;99.90
31271;DHT22;17904;47.420;9.310;2022-08-01T00:42:12;17.80;99.90
31271;DHT22;17904;47.420;9.310;2022-08-01T00:44:39;17.80;99.90
31271;DHT22;17904;47.420;9.310;2022-08-01T00:47:07;17.80;99.90
31271;DHT22;17904;47.420;9.310;2022-08-01T00:49:34;17.80;99.90
31271;DHT22;17904;47.420;9.310;2022-08-01T00:52:03;17.80;99.90
31271;DHT22;17904;47.420;9.310;2022-08-01T00:54:32;17.80;99.90
31271;DHT22;17904;47.420;9.310;2022-08-01T00:56:59;17.80;99.90
31271;DHT22;17904;47.420;9.310;2022-08-01T00:59:27;17.80;99.90
31271;DHT22;17904;47.420;9.310;2022-08-01T01:01:54;17.80;99.90
31271;DHT22;17904;47.420;9.310;2022-08-01T01:04:21;17.80;99.90
31271;DHT22;17904;47.420;9.310;2022-08-01T01:09:39;17.80;99.90
31271;DHT22;17904;47.420;9.310;2022-08-01T01:12:17;17.80;99.90
31271;DHT22;17904;47.420;9.310;2022-08-01T01:18:01;17.70;99.90
31271;DHT22;17904;47.420;9.310;2022-08-01T01:20:36;17.70;99.90
31271;DHT22;17904;47.420;9.310;2022-08-01T01:28:57;17.70;99.90
31271;DHT22;17904;47.420;9.310;2022-08-01T01:31:27;17.80;99.90
31271;DHT22;17904;47.420;9.310;2022-08-01T01:33:55;17.70;99.90
31271;DHT22;17904;47.420;9.310;2022-08-01T01:36:26;17.70;99.90
31271;DHT22;17904;47.420;9.310;2022-08-01T01:38:54;17.70;99.90
31271;DHT22;17904;47.420;9.310;2022-08-01T01:41:22;17.80;99.90
31271;DHT22;17904;47.420;9.310;2022-08-01T01:43:50;17.80;99.90
31271;DHT22;17904;47.420;9.310;2022-08-01T01:46:22;17.80;99.90
31271;DHT22;17904;47.420;9.310;2022-08-01T01:48:50;17.80;99.90
31271;DHT22;17904;47.420;9.310;2022-08-01T01:51:21;17.70;99.90
31271;DHT22;17904;47.420;9.310;2022-08-01T01:53:49;17.80;99.90
31271;DHT22;17904;47.420;9.310;2022-08-01T01:56:19;17.70;99.90
31271;DHT22;17904;47.420;9.310;2022-08-01T01:58:52;17.70;99.90
31271;DHT22;17904;47.420;9.310;2022-08-01T02:01:22;17.70;99.90
31271;DHT22;17904;47.420;9.310;2022-08-01T02:04:10;17.60;99.90
31271;DHT22;17904;47.420;9.310;2022-08-01T02:06:38;17.60;99.90
31271;DHT22;17904;47.420;9.310;2022-08-01T02:09:07;17.60;99.90
31271;DHT22;17904;47.420;9.310;2022-08-01T02:11:37;17.60;99.90
31271;DHT22;17904;47.420;9.310;2022-08-01T02:14:25;17.60;99.90
31271;DHT22;17904;47.420;9.310;2022-08-01T02:16:55;17.60;99.90
31271;DHT22;17904;47.420;9.310;2022-08-01T02:19:23;17.50;99.90
31271;DHT22;17904;47.420;9.310;2022-08-01T02:21:51;17.50;99.90
31271;DHT22;17904;47.420;9.310;2022-08-01T02:24:36;17.50;99.90
31271;DHT22;17904;47.420;9.310;2022-08-01T02:27:10;17.50;99.90
31271;DHT22;17904;47.420;9.310;2022-08-01T02:29:47;17.40;99.90
31271;DHT22;17904;47.420;9.310;2022-08-01T02:32:24;17.40;99.90
31271;DHT22;17904;47.420;9.310;2022-08-01T02:34:53;17.40;99.90
31271;DHT22;17904;47.420;9.310;2022-08-01T02:37:23;17.30;99.90
31271;DHT22;17904;47.420;9.310;2022-08-01T02:39:54;17.40;99.90
31271;DHT22;17904;47.420;9.310;2022-08-01T02:42:23;17.40;99.90
31271;DHT22;17904;47.420;9.310;2022-08-01T02:44:52;17.30;99.90
31271;DHT22;17904;47.420;9.310;2022-08-01T02:47:20;17.30;99.90
31271;DHT22;17904;47.420;9.310;2022-08-01T02:49:50;17.30;99.90
31271;DHT22;17904;47.420;9.310;2022-08-01T02:52:21;17.30;99.90
31271;DHT22;17904;47.420;9.310;2022-08-01T02:54:53;17.20;99.90
31271;DHT22;17904;47.420;9.310;2022-08-01T02:57:21;17.20;99.90
31271;DHT22;17904;47.420;9.310;2022-08-01T03:00:00;17.20;99.90
31271;DHT22;17904;47.420;9.310;2022-08-01T03:02:27;17.20;99.90
31271;DHT22;17904;47.420;9.310;2022-08-01T03:04:56;17.20;99.90
31271;DHT22;17904;47.420;9.310;2022-08-01T03:07:24;17.20;99.90
31271;DHT22;17904;47.420;9.310;2022-08-01T03:10:02;17.20;99.90
31271;DHT22;17904;47.420;9.310;2022-08-01T03:12:32;17.10;99.90
31271;DHT22;17904;47.420;9.310;2022-08-01T03:15:01;17.10;99.90
31271;DHT22;17904;47.420;9.310;2022-08-01T03:17:29;17.10;99.90
31271;DHT22;17904;47.420;9.310;2022-08-01T03:19:57;17.00;99.90
31271;DHT22;17904;47.420;9.310;2022-08-01T03:22:27;17.00;99.90
31271;DHT22;17904;47.420;9.310;2022-08-01T03:24:56;17.00;99.90
31271;DHT22;17904;47.420;9.310;2022-08-01T03:27:25;17.10;99.90
31271;DHT22;17904;47.420;9.310;2022-08-01T03:29:55;17.00;99.90
31271;DHT22;17904;47.420;9.310;2022-08-01T03:32:23;17.10;99.90
31271;DHT22;17904;47.420;9.310;2022-08-01T03:34:51;17.10;99.90
31271;DHT22;17904;47.420;9.310;2022-08-01T03:37:30;17.10;99.90
31271;DHT22;17904;47.420;9.310;2022-08-01T03:40:07;17.10;99.90
31271;DHT22;17904;47.420;9.310;2022-08-01T03:42:43;17.10;99.90
31271;DHT22;17904;47.420;9.310;2022-08-01T03:45:21;17.10;99.90
31271;DHT22;17904;47.420;9.310;2022-08-01T03:47:52;17.10;99.90
31271;DHT22;17904;47.420;9.310;2022-08-01T03:50:22;17.10;99.90
31271;DHT22;17904;47.420;9.310;2022-08-01T03:52:51;17.10;99.90
31271;DHT22;17904;47.420;9.310;2022-08-01T03:55:21;17.10;99.90
31271;DHT22;17904;47.420;9.310;2022-08-01T03:57:48;17.10;99.90
31271;DHT22;17904;47.420;9.310;2022-08-01T04:00:16;17.10;99.90
31271;DHT22;17904;47.420;9.310;2022-08-01T04:02:48;17.00;99.90
31271;DHT22;17904;47.420;9.310;2022-08-01T04:05:16;17.00;99.90
31271;DHT22;17904;47.420;9.310;2022-08-01T04:07:48;16.90;99.90
31271;DHT22;17904;47.420;9.310;2022-08-01T04:10:17;16.90;99.90
31271;DHT22;17904;47.420;9.310;2022-08-01T04:12:43;16.90;99.90
31271;DHT22;17904;47.420;9.310;2022-08-01T04:15:10;16.80;99.90
31271;DHT22;17904;47.420;9.310;2022-08-01T04:17:37;16.80;99.90
31271;DHT22;17904;47.420;9.310;2022-08-01T04:20:05;16.80;99.90
31271;DHT22;17904;47.420;9.310;2022-08-01T04:22:31;16.80;99.90
31271;DHT22;17904;47.420;9.310;2022-08-01T04:25:09;16.80;99.90
31271;DHT22;17904;47.420;9.310;2022-08-01T04:27:40;16.80;99.90
31271;DHT22;17904;47.420;9.310;2022-08-01T04:30:23;16.80;99.90
31271;DHT22;17904;47.420;9.310;2022-08-01T04:32:55;16.80;99.90
31271;DHT22;17904;47.420;9.310;2022-08-01T04:35:23;16.80;99.90
31271;DHT22;17904;47.420;9.310;2022-08-01T04:38:14;16.80;99.90
31271;DHT22;17904;47.420;9.310;2022-08-01T04:40:44;16.90;99.90
31271;DHT22;17904;47.420;9.310;2022-08-01T04:43:12;16.90;99.90
31271;DHT22;17904;47.420;9.310;2022-08-01T04:45:42;16.90;99.90
31271;DHT22;17904;47.420;9.310;2022-08-01T04:48:11;17.00;99.90
31271;DHT22;17904;47.420;9.310;2022-08-01T04:50:41;17.00;99.90
31271;DHT22;17904;47.420;9.310;2022-08-01T04:53:16;17.10;99.90
31271;DHT22;17904;47.420;9.310;2022-08-01T04:55:44;17.10;99.90
31271;DHT22;17904;47.420;9.310;2022-08-01T04:58:13;17.10;99.90
31271;DHT22;17904;47.420;9.310;2022-08-01T05:00:44;17.10;99.90
31271;DHT22;17904;47.420;9.310;2022-08-01T05:03:11;17.20;99.90
31271;DHT22;17904;47.420;9.310;2022-08-01T05:05:38;17.30;99.90
31271;DHT22;17904;47.420;9.310;2022-08-01T05:08:05;17.30;99.90
31271;DHT22;17904;47.420;9.310;2022-08-01T05:10:33;17.40;99.90
31271;DHT22;17904;47.420;9.310;2022-08-01T05:13:00;17.50;99.90
31271;DHT22;17904;47.420;9.310;2022-08-01T05:15:27;17.50;99.90
31271;DHT22;17904;47.420;9.310;2022-08-01T05:17:54;17.70;99.90
31271;DHT22;17904;47.420;9.310;2022-08-01T05:20:21;17.70;99.90
31271;DHT22;17904;47.420;9.310;2022-08-01T05:22:48;17.80;99.90
31271;DHT22;17904;47.420;9.310;2022-08-01T05:25:15;17.80;99.90
31271;DHT22;17904;47.420;9.310;2022-08-01T05:27:46;17.90;99.90
31271;DHT22;17904;47.420;9.310;2022-08-01T05:30:14;17.90;99.90
31271;DHT22;17904;47.420;9.310;2022-08-01T05:32:42;18.00;99.90
31271;DHT22;17904;47.420;9.310;2022-08-01T05:35:09;18.00;99.90
31271;DHT22;17904;47.420;9.310;2022-08-01T05:37:36;18.00;99.90
31271;DHT22;17904;47.420;9.310;2022-08-01T05:40:03;18.10;99.90
31271;DHT22;17904;47.420;9.310;2022-08-01T05:42:30;18.10;99.90
31271;DHT22;17904;47.420;9.310;2022-08-01T05:44:57;18.20;99.90
31271;DHT22;17904;47.420;9.310;2022-08-01T05:47:24;18.20;99.90
31271;DHT22;17904;47.420;9.310;2022-08-01T05:49:51;18.30;99.90
31271;DHT22;17904;47.420;9.310;2022-08-01T05:52:18;18.30;99.90
31271;DHT22;17904;47.420;9.310;2022-08-01T05:54:44;18.40;99.90
31271;DHT22;17904;47.420;9.310;2022-08-01T05:57:11;18.40;99.90
31271;DHT22;17904;47.420;9.310;2022-08-01T05:59:40;18.50;99.90
31271;DHT22;17904;47.420;9.310;2022-08-01T06:02:07;18.60;99.90
31271;DHT22;17904;47.420;9.310;2022-08-01T06:04:34;18.70;99.90
31271;DHT22;17904;47.420;9.310;2022-08-01T06:07:01;18.80;99.90
31271;DHT22;17904;47.420;9.310;2022-08-01T06:09:27;18.90;99.90
31271;DHT22;17904;47.420;9.310;2022-08-01T06:11:54;18.90;99.90
31271;DHT22;17904;47.420;9.310;2022-08-01T06:14:21;19.00;99.90
31271;DHT22;17904;47.420;9.310;2022-08-01T06:16:48;19.20;99.90
31271;DHT22;17904;47.420;9.310;2022-08-01T06:19:14;19.30;99.90
31271;DHT22;17904;47.420;9.310;2022-08-01T06:21:41;19.30;99.90
31271;DHT22;17904;47.420;9.310;2022-08-01T06:24:08;19.40;99.90
31271;DHT22;17904;47.420;9.310;2022-08-01T06:26:36;19.50;99.90
31271;DHT22;17904;47.420;9.310;2022-08-01T06:29:03;19.60;99.90
31271;DHT22;17904;47.420;9.310;2022-08-01T06:31:30;19.70;99.90
31271;DHT22;17904;47.420;9.310;2022-08-01T06:33:59;19.80;99.90
31271;DHT22;17904;47.420;9.310;2022-08-01T06:36:26;19.90;99.90
31271;DHT22;17904;47.420;9.310;2022-08-01T06:38:53;20.00;99.90
31271;DHT22;17904;47.420;9.310;2022-08-01T06:41:20;20.10;99.90
31271;DHT22;17904;47.420;9.310;2022-08-01T06:43:47;20.30;99.90
31271;DHT22;17904;47.420;9.310;2022-08-01T06:46:14;20.40;99.90
31271;DHT22;17904;47.420;9.310;2022-08-01T06:48:40;20.50;99.90
31271;DHT22;17904;47.420;9.310;2022-08-01T06:51:09;20.60;99.90
31271;DHT22;17904;47.420;9.310;2022-08-01T06:53:37;20.70;99.90
31271;DHT22;17904;47.420;9.310;2022-08-01T06:56:05;20.80;99.90
31271;DHT22;17904;47.420;9.310;2022-08-01T06:58:32;20.90;99.90
31271;DHT22;17904;47.420;9.310;2022-08-01T07:01:05;21.00;99.90
31271;DHT22;17904;47.420;9.310;2022-08-01T07:03:35;21.00;99.90
31271;DHT22;17904;47.420;9.310;2022-08-01T07:06:24;21.10;99.90
31271;DHT22;17904;47.420;9.310;2022-08-01T07:08:52;21.20;99.90
31271;DHT22;17904;47.420;9.310;2022-08-01T07:11:20;21.20;99.90
31271;DHT22;17904;47.420;9.310;2022-08-01T07:13:48;21.30;99.90
31271;DHT22;17904;47.420;9.310;2022-08-01T07:16:15;21.30;99.90
31271;DHT22;17904;47.420;9.310;2022-08-01T07:18:43;21.40;99.90
31271;DHT22;17904;47.420;9.310;2022-08-01T07:21:10;21.50;99.90
31271;DHT22;17904;47.420;9.310;2022-08-01T07:23:57;21.50;99.90
31271;DHT22;17904;47.420;9.310;2022-08-01T07:26:26;21.70;99.90
31271;DHT22;17904;47.420;9.310;2022-08-01T07:28:54;21.70;99.90
31271;DHT22;17904;47.420;9.310;2022-08-01T07:31:20;21.90;99.90
31271;DHT22;17904;47.420;9.310;2022-08-01T07:33:47;21.90;99.90
31271;DHT22;17904;47.420;9.310;2022-08-01T07:36:18;22.00;99.90
31271;DHT22;17904;47.420;9.310;2022-08-01T07:38:46;22.10;99.90
31271;DHT22;17904;47.420;9.310;2022-08-01T07:41:13;22.10;99.90
31271;DHT22;17904;47.420;9.310;2022-08-01T07:43:40;22.20;99.90
31271;DHT22;17904;47.420;9.310;2022-08-01T07:46:18;22.30;99.90
31271;DHT22;17904;47.420;9.310;2022-08-01T07:48:45;22.40;99.90
31271;DHT22;17904;47.420;9.310;2022-08-01T07:51:12;22.50;99.90
31271;DHT22;17904;47.420;9.310;2022-08-01T07:53:39;22.70;99.90
31271;DHT22;17904;47.420;9.310;2022-08-01T07:56:06;22.90;99.90
31271;DHT22;17904;47.420;9.310;2022-08-01T07:58:33;23.00;99.90
31271;DHT22;17904;47.420;9.310;2022-08-01T08:01:00;23.10;99.90
31271;DHT22;17904;47.420;9.310;2022-08-01T08:03:27;23.20;98.40
31271;DHT22;17904;47.420;9.310;2022-08-01T08:05:54;23.30;97.60
31271;DHT22;17904;47.420;9.310;2022-08-01T08:08:26;23.40;97.20
31271;DHT22;17904;47.420;9.310;2022-08-01T08:10:52;23.50;96.30
31271;DHT22;17904;47.420;9.310;2022-08-01T08:13:19;24.00;95.90
31271;DHT22;17904;47.420;9.310;2022-08-01T08:15:47;24.40;94.00
31271;DHT22;17904;47.420;9.310;2022-08-01T08:18:15;25.00;89.50
31271;DHT22;17904;47.420;9.310;2022-08-01T08:20:42;25.40;86.40
31271;DHT22;17904;47.420;9.310;2022-08-01T08:23:09;25.90;79.60
31271;DHT22;17904;47.420;9.310;2022-08-01T08:26:09;26.20;76.60
31271;DHT22;17904;47.420;9.310;2022-08-01T08:28:36;26.50;71.00
31271;DHT22;17904;47.420;9.310;2022-08-01T08:31:03;26.80;68.00
31271;DHT22;17904;47.420;9.310;2022-08-01T08:33:30;26.90;65.50
31271;DHT22;17904;47.420;9.310;2022-08-01T08:35:56;27.00;63.10
31271;DHT22;17904;47.420;9.310;2022-08-01T08:38:24;27.10;58.80
31271;DHT22;17904;47.420;9.310;2022-08-01T08:40:56;27.10;58.40
31271;DHT22;17904;47.420;9.310;2022-08-01T08:43:25;27.20;58.10
31271;DHT22;17904;47.420;9.310;2022-08-01T08:45:52;27.20;58.00
31271;DHT22;17904;47.420;9.310;2022-08-01T08:48:25;27.20;60.00
31271;DHT22;17904;47.420;9.310;2022-08-01T08:50:53;27.40;58.60
31271;DHT22;17904;47.420;9.310;2022-08-01T08:53:21;27.50;57.20
31271;DHT22;17904;47.420;9.310;2022-08-01T08:55:48;27.50;56.10
31271;DHT22;17904;47.420;9.310;2022-08-01T08:58:22;27.30;56.50
31271;DHT22;17904;47.420;9.310;2022-08-01T09:00:58;27.40;56.70
31271;DHT22;17904;47.420;9.310;2022-08-01T09:03:25;27.40;56.00
31271;DHT22;17904;47.420;9.310;2022-08-01T09:05:52;27.30;55.60
31271;DHT22;17904;47.420;9.310;2022-08-01T09:08:19;27.50;57.10
31271;DHT22;17904;47.420;9.310;2022-08-01T09:10:46;27.70;55.80
31271;DHT22;17904;47.420;9.310;2022-08-01T09:13:14;27.80;54.30
31271;DHT22;17904;47.420;9.310;2022-08-01T09:15:47;27.90;53.90
31271;DHT22;17904;47.420;9.310;2022-08-01T09:21:13;28.20;54.20
31271;DHT22;17904;47.420;9.310;2022-08-01T09:23:52;28.40;55.20
31271;DHT22;17904;47.420;9.310;2022-08-01T09:26:35;28.60;53.60
31271;DHT22;17904;47.420;9.310;2022-08-01T09:29:05;28.80;52.80
31271;DHT22;17904;47.420;9.310;2022-08-01T09:31:43;28.90;53.00
31271;DHT22;17904;47.420;9.310;2022-08-01T09:34:23;29.00;51.60
31271;DHT22;17904;47.420;9.310;2022-08-01T09:37:00;29.10;52.10
31271;DHT22;17904;47.420;9.310;2022-08-01T09:39:35;29.10;50.70
31271;DHT22;17904;47.420;9.310;2022-08-01T09:42:24;29.10;50.50
31271;DHT22;17904;47.420;9.310;2022-08-01T09:44:55;29.20;51.00
31271;DHT22;17904;47.420;9.310;2022-08-01T09:47:39;29.40;53.50
31271;DHT22;17904;47.420;9.310;2022-08-01T09:50:07;29.60;55.70
31271;DHT22;17904;47.420;9.310;2022-08-01T09:52:37;29.80;53.20
31271;DHT22;17904;47.420;9.310;2022-08-01T09:55:07;30.10;53.50
31271;DHT22;17904;47.420;9.310;2022-08-01T09:57:34;30.30;49.50
31271;DHT22;17904;47.420;9.310;2022-08-01T10:00:03;30.40;48.70
31271;DHT22;17904;47.420;9.310;2022-08-01T10:02:40;30.50;49.10
31271;DHT22;17904;47.420;9.310;2022-08-01T10:05:09;30.50;47.60
31271;DHT22;17904;47.420;9.310;2022-08-01T10:10:25;30.60;49.20
31271;DHT22;17904;47.420;9.310;2022-08-01T10:12:58;30.70;47.30
31271;DHT22;17904;47.420;9.310;2022-08-01T10:15:26;30.90;47.90
31271;DHT22;17904;47.420;9.310;2022-08-01T10:18:06;31.10;47.20
31271;DHT22;17904;47.420;9.310;2022-08-01T10:20:42;31.30;47.50
31271;DHT22;17904;47.420;9.310;2022-08-01T10:23:10;31.40;46.90
31271;DHT22;17904;47.420;9.310;2022-08-01T10:25:40;31.40;46.80
31271;DHT22;17904;47.420;9.310;2022-08-01T10:28:17;31.30;44.60
31271;DHT22;17904;47.420;9.310;2022-08-01T10:30:49;31.40;49.40
31271;DHT22;17904;47.420;9.310;2022-08-01T10:33:21;31.60;51.30
31271;DHT22;17904;47.420;9.310;2022-08-01T10:36:08;31.60;49.70
31271;DHT22;17904;47.420;9.310;2022-08-01T10:38:36;31.40;50.50
31271;DHT22;17904;47.420;9.310;2022-08-01T10:41:04;31.30;50.70
31271;DHT22;17904;47.420;9.310;2022-08-01T10:43:35;31.40;51.20
31271;DHT22;17904;47.420;9.310;2022-08-01T10:46:04;31.40;49.60
31271;DHT22;17904;47.420;9.310;2022-08-01T10:48:39;31.40;49.50
31271;DHT22;17904;47.420;9.310;2022-08-01T10:51:09;31.50;50.90
31271;DHT22;17904;47.420;9.310;2022-08-01T10:53:50;31.60;50.40
31271;DHT22;17904;47.420;9.310;2022-08-01T10:56:21;31.60;49.70
31271;DHT22;17904;47.420;9.310;2022-08-01T10:59:01;31.60;50.60
31271;DHT22;17904;47.420;9.310;2022-08-01T11:01:37;31.50;51.00
31271;DHT22;17904;47.420;9.310;2022-08-01T11:04:13;31.70;50.50
31271;DHT22;17904;47.420;9.310;2022-08-01T11:06:54;31.70;50.30
31271;DHT22;17904;47.420;9.310;2022-08-01T11:09:24;31.90;50.30
31271;DHT22;17904;47.420;9.310;2022-08-01T11:12:12;32.00;49.00
31271;DHT22;17904;47.420;9.310;2022-08-01T11:17:35;32.30;48.50
31271;DHT22;17904;47.420;9.310;2022-08-01T11:20:25;32.30;48.00
31271;DHT22;17904;47.420;9.310;2022-08-01T11:28:24;32.30;43.40
31271;DHT22;17904;47.420;9.310;2022-08-01T11:39:10;31.50;45.10
31271;DHT22;17904;47.420;9.310;2022-08-01T11:41:40;31.50;44.80
31271;DHT22;17904;47.420;9.310;2022-08-01T11:44:08;31.50;44.10
31271;DHT22;17904;47.420;9.310;2022-08-01T11:47:06;31.60;46.00
31271;DHT22;17904;47.420;9.310;2022-08-01T11:49:43;31.70;44.30
31271;DHT22;17904;47.420;9.310;2022-08-01T11:52:29;31.70;44.20
31271;DHT22;17904;47.420;9.310;2022-08-01T11:55:04;31.70;44.50
31271;DHT22;17904;47.420;9.310;2022-08-01T11:57:36;31.50;46.70
31271;DHT22;17904;47.420;9.310;2022-08-01T12:00:25;31.50;47.70
31271;DHT22;17904;47.420;9.310;2022-08-01T12:03:06;31.50;47.00
31271;DHT22;17904;47.420;9.310;2022-08-01T12:05:34;31.60;46.10
31271;DHT22;17904;47.420;9.310;2022-08-01T12:08:09;31.70;46.10
31271;DHT22;17904;47.420;9.310;2022-08-01T12:10:36;32.00;47.40
31271;DHT22;17904;47.420;9.310;2022-08-01T12:13:13;32.20;45.70
31271;DHT22;17904;47.420;9.310;2022-08-01T12:15:39;32.30;43.90
31271;DHT22;17904;47.420;9.310;2022-08-01T12:18:07;32.30;43.80
31271;DHT22;17904;47.420;9.310;2022-08-01T12:20:37;32.30;40.30
31271;DHT22;17904;47.420;9.310;2022-08-01T12:23:20;32.30;40.70
31271;DHT22;17904;47.420;9.310;2022-08-01T12:25:51;32.40;41.70
31271;DHT22;17904;47.420;9.310;2022-08-01T12:28:18;32.50;43.00
31271;DHT22;17904;47.420;9.310;2022-08-01T12:30:47;32.60;41.10
31271;DHT22;17904;47.420;9.310;2022-08-01T12:33:17;32.50;40.30
31271;DHT22;17904;47.420;9.310;2022-08-01T12:35:45;32.60;40.20
31271;DHT22;17904;47.420;9.310;2022-08-01T12:38:31;32.60;40.50
31271;DHT22;17904;47.420;9.310;2022-08-01T12:40:59;32.60;39.40
31271;DHT22;17904;47.420;9.310;2022-08-01T12:43:27;32.50;40.40
31271;DHT22;17904;47.420;9.310;2022-08-01T12:45:59;32.20;39.20
31271;DHT22;17904;47.420;9.310;2022-08-01T12:48:27;32.20;40.90
31271;DHT22;17904;47.420;9.310;2022-08-01T12:50:55;32.30;42.70
31271;DHT22;17904;47.420;9.310;2022-08-01T12:53:24;32.40;40.20
31271;DHT22;17904;47.420;9.310;2022-08-01T12:56:07;32.60;41.40
31271;DHT22;17904;47.420;9.310;2022-08-01T12:58:34;32.80;39.00
31271;DHT22;17904;47.420;9.310;2022-08-01T13:01:06;32.80;36.40
31271;DHT22;17904;47.420;9.310;2022-08-01T13:03:33;32.60;36.50
31271;DHT22;17904;47.420;9.310;2022-08-01T13:06:00;32.60;36.10
31271;DHT22;17904;47.420;9.310;2022-08-01T13:08:33;32.60;38.00
31271;DHT22;17904;47.420;9.310;2022-08-01T13:11:02;32.80;36.70
31271;DHT22;17904;47.420;9.310;2022-08-01T13:13:42;32.80;34.80
31271;DHT22;17904;47.420;9.310;2022-08-01T13:16:10;32.60;35.70
31271;DHT22;17904;47.420;9.310;2022-08-01T13:18:57;32.50;38.90
31271;DHT22;17904;47.420;9.310;2022-08-01T13:21:27;32.70;39.80
31271;DHT22;17904;47.420;9.310;2022-08-01T13:24:11;32.80;38.20
31271;DHT22;17904;47.420;9.310;2022-08-01T13:26:50;32.90;34.10
31271;DHT22;17904;47.420;9.310;2022-08-01T13:29:22;32.90;35.90
31271;DHT22;17904;47.420;9.310;2022-08-01T13:31:54;32.90;35.80
31271;DHT22;17904;47.420;9.310;2022-08-01T13:34:32;32.70;35.30
31271;DHT22;17904;47.420;9.310;2022-08-01T13:37:00;32.60;35.80
31271;DHT22;17904;47.420;9.310;2022-08-01T13:39:33;32.50;37.40
31271;DHT22;17904;47.420;9.310;2022-08-01T13:42:15;32.60;38.40
31271;DHT22;17904;47.420;9.310;2022-08-01T13:44:45;32.60;38.70
31271;DHT22;17904;47.420;9.310;2022-08-01T13:47:12;32.70;39.80
31271;DHT22;17904;47.420;9.310;2022-08-01T13:49:42;32.80;39.30
31271;DHT22;17904;47.420;9.310;2022-08-01T13:52:09;32.70;38.10
31271;DHT22;17904;47.420;9.310;2022-08-01T13:54:36;32.70;37.20
31271;DHT22;17904;47.420;9.310;2022-08-01T13:57:03;32.80;37.10
31271;DHT22;17904;47.420;9.310;2022-08-01T13:59:30;32.90;37.20
31271;DHT22;17904;47.420;9.310;2022-08-01T14:01:57;33.00;36.60
31271;DHT22;17904;47.420;9.310;2022-08-01T14:04:24;33.10;34.40
31271;DHT22;17904;47.420;9.310;2022-08-01T14:06:51;33.20;34.60
31271;DHT22;17904;47.420;9.310;2022-08-01T14:09:18;33.20;33.30
31271;DHT22;17904;47.420;9.310;2022-08-01T14:11:50;33.10;33.40
31271;DHT22;17904;47.420;9.310;2022-08-01T14:14:17;33.00;34.60
31271;DHT22;17904;47.420;9.310;2022-08-01T14:16:43;33.00;38.00
31271;DHT22;17904;47.420;9.310;2022-08-01T14:19:13;33.00;34.90
31271;DHT22;17904;47.420;9.310;2022-08-01T14:21:44;33.10;34.80
31271;DHT22;17904;47.420;9.310;2022-08-01T14:24:11;33.20;34.50
31271;DHT22;17904;47.420;9.310;2022-08-01T14:26:38;33.30;35.40
31271;DHT22;17904;47.420;9.310;2022-08-01T14:29:05;33.40;33.60
31271;DHT22;17904;47.420;9.310;2022-08-01T14:31:32;33.40;33.70
31271;DHT22;17904;47.420;9.310;2022-08-01T14:34:00;33.50;33.60
31271;DHT22;17904;47.420;9.310;2022-08-01T14:36:27;33.60;35.50
31271;DHT22;17904;47.420;9.310;2022-08-01T14:38:57;33.60;33.70
31271;DHT22;17904;47.420;9.310;2022-08-01T14:41:27;33.70;34.70
31271;DHT22;17904;47.420;9.310;2022-08-01T14:43:53;33.80;33.40
31271;DHT22;17904;47.420;9.310;2022-08-01T14:46:20;33.70;32.80
31271;DHT22;17904;47.420;9.310;2022-08-01T14:48:47;33.40;31.50
31271;DHT22;17904;47.420;9.310;2022-08-01T14:51:14;33.20;32.80
31271;DHT22;17904;47.420;9.310;2022-08-01T14:53:41;33.10;31.40
31271;DHT22;17904;47.420;9.310;2022-08-01T14:56:16;33.00;32.00
31271;DHT22;17904;47.420;9.310;2022-08-01T14:58:43;32.90;31.90
31271;DHT22;17904;47.420;9.310;2022-08-01T15:01:10;32.80;31.70
31271;DHT22;17904;47.420;9.310;2022-08-01T15:03:37;32.60;31.50
31271;DHT22;17904;47.420;9.310;2022-08-01T15:06:04;32.50;31.50
31271;DHT22;17904;47.420;9.310;2022-08-01T15:08:33;32.50;32.60
31271;DHT22;17904;47.420;9.310;2022-08-01T15:11:00;32.60;31.40
31271;DHT22;17904;47.420;9.310;2022-08-01T15:13:28;32.60;32.20
31271;DHT22;17904;47.420;9.310;2022-08-01T15:15:54;32.60;31.80
31271;DHT22;17904;47.420;9.310;2022-08-01T15:18:26;32.60;31.40
31271;DHT22;17904;47.420;9.310;2022-08-01T15:20:55;32.60;29.80
31271;DHT22;17904;47.420;9.310;2022-08-01T15:23:21;32.40;30.40
31271;DHT22;17904;47.420;9.310;2022-08-01T15:25:49;32.20;31.00
31271;DHT22;17904;47.420;9.310;2022-08-01T15:28:15;31.90;31.40
31271;DHT22;17904;47.420;9.310;2022-08-01T15:30:42;31.70;32.10
31271;DHT22;17904;47.420;9.310;2022-08-01T15:33:09;31.60;32.90
31271;DHT22;17904;47.420;9.310;2022-08-01T15:35:36;31.40;32.90
31271;DHT22;17904;47.420;9.310;2022-08-01T15:38:03;31.20;32.50
31271;DHT22;17904;47.420;9.310;2022-08-01T15:40:30;31.00;34.20
31271;DHT22;17904;47.420;9.310;2022-08-01T15:43:01;30.80;34.20
31271;DHT22;17904;47.420;9.310;2022-08-01T15:45:28;30.70;35.00
31271;DHT22;17904;47.420;9.310;2022-08-01T15:48:16;30.50;34.40
31271;DHT22;17904;47.420;9.310;2022-08-01T15:50:43;30.30;35.50
31271;DHT22;17904;47.420;9.310;2022-08-01T15:53:10;30.10;36.40
31271;DHT22;17904;47.420;9.310;2022-08-01T15:55:37;30.10;36.60
31271;DHT22;17904;47.420;9.310;2022-08-01T15:58:05;30.10;36.70
31271;DHT22;17904;47.420;9.310;2022-08-01T16:00:33;30.20;35.70
31271;DHT22;17904;47.420;9.310;2022-08-01T16:03:06;30.40;36.70
31271;DHT22;17904;47.420;9.310;2022-08-01T16:05:33;30.50;37.70
31271;DHT22;17904;47.420;9.310;2022-08-01T16:08:10;30.70;35.90
31271;DHT22;17904;47.420;9.310;2022-08-01T16:10:37;30.80;35.90
31271;DHT22;17904;47.420;9.310;2022-08-01T16:13:04;30.80;36.90
31271;DHT22;17904;47.420;9.310;2022-08-01T16:15:34;30.70;38.50
31271;DHT22;17904;47.420;9.310;2022-08-01T16:18:08;30.70;39.70
31271;DHT22;17904;47.420;9.310;2022-08-01T16:20:35;30.70;40.10
31271;DHT22;17904;47.420;9.310;2022-08-01T16:23:10;30.70;39.90